sensor_id;sensor_type;location;lat;lon;timestamp;temperature;humidity
78297;DHT22;67555;47.660;19.622;2023-06-24T00:02:05;18.60;94.80
78297;DHT22;67555;47.660;19.622;2023-06-24T00:04:31;18.60;94.60
78297;DHT22;67555;47.660;19.622;2023-06-24T00:06:57;18.60;94.60
78297;DHT22;67555;47.660;19.622;2023-06-24T00:09:26;18.60;94.60
78297;DHT22;67555;47.660;19.622;2023-06-24T00:11:54;18.50;94.50
78297;DHT22;67555;47.660;19.622;2023-06-24T00:14:20;18.40;94.50
78297;DHT22;67555;47.660;19.622;2023-06-24T00:16:47;18.30;94.60
78297;DHT22;67555;47.660;19.622;2023-06-24T00:19:22;18.20;94.70
78297;DHT22;67555;47.660;19.622;2023-06-24T00:21:49;18.10;94.70
78297;DHT22;67555;47.660;19.622;2023-06-24T00:24:21;18.10;94.70
78297;DHT22;67555;47.660;19.622;2023-06-24T00:26:54;18.00;94.70
78297;DHT22;67555;47.660;19.622;2023-06-24T00:29:20;18.00;94.70
78297;DHT22;67555;47.660;19.622;2023-06-24T00:31:45;18.00;94.80
78297;DHT22;67555;47.660;19.622;2023-06-24T00:34:11;18.00;94.80
78297;DHT22;67555;47.660;19.622;2023-06-24T00:36:37;18.00;94.90
78297;DHT22;67555;47.660;19.622;2023-06-24T00:39:04;18.10;95.00
78297;DHT22;67555;47.660;19.622;2023-06-24T00:41:34;18.20;95.00
78297;DHT22;67555;47.660;19.622;2023-06-24T00:44:00;18.20;94.90
78297;DHT22;67555;47.660;19.622;2023-06-24T00:46:27;18.30;94.80
78297;DHT22;67555;47.660;19.622;2023-06-24T00:48:56;18.40;94.80
78297;DHT22;67555;47.660;19.622;2023-06-24T00:51:22;18.60;94.70
78297;DHT22;67555;47.660;19.622;2023-06-24T00:53:55;18.70;94.60
78297;DHT22;67555;47.660;19.622;2023-06-24T00:56:33;18.70;94.50
78297;DHT22;67555;47.660;19.622;2023-06-24T00:59:00;18.80;94.40
78297;DHT22;67555;47.660;19.622;2023-06-24T01:01:33;18.90;94.30
78297;DHT22;67555;47.660;19.622;2023-06-24T01:04:00;18.90;94.20
78297;DHT22;67555;47.660;19.622;2023-06-24T01:06:29;19.00;94.00
78297;DHT22;67555;47.660;19.622;2023-06-24T01:08:59;19.00;94.00
78297;DHT22;67555;47.660;19.622;2023-06-24T01:11:26;19.10;93.80
78297;DHT22;67555;47.660;19.622;2023-06-24T01:13:52;19.10;93.80
78297;DHT22;67555;47.660;19.622;2023-06-24T01:17:19;19.10;93.90
78297;DHT22;67555;47.660;19.622;2023-06-24T01:27:45;19.10;94.00
78297;DHT22;67555;47.660;19.622;2023-06-24T01:33:03;19.00;94.30
78297;DHT22;67555;47.660;19.622;2023-06-24T01:35:33;19.00;94.50
78297;DHT22;67555;47.660;19.622;2023-06-24T01:38:14;19.00;94.40
78297;DHT22;67555;47.660;19.622;2023-06-24T01:40:44;19.10;94.10
78297;DHT22;67555;47.660;19.622;2023-06-24T01:43:12;19.10;94.00
78297;DHT22;67555;47.660;19.622;2023-06-24T01:45:43;19.10;93.90
78297;DHT22;67555;47.660;19.622;2023-06-24T01:48:16;19.10;93.70
78297;DHT22;67555;47.660;19.622;2023-06-24T01:50:50;19.10;93.60
78297;DHT22;67555;47.660;19.622;2023-06-24T01:53:19;19.10;93.50
78297;DHT22;67555;47.660;19.622;2023-06-24T01:55:46;19.10;93.50
78297;DHT22;67555;47.660;19.622;2023-06-24T01:58:16;19.10;93.40
78297;DHT22;67555;47.660;19.622;2023-06-24T02:00:43;19.20;93.40
78297;DHT22;67555;47.660;19.622;2023-06-24T02:03:10;19.20;93.30
78297;DHT22;67555;47.660;19.622;2023-06-24T02:05:37;19.20;93.20
78297;DHT22;67555;47.660;19.622;2023-06-24T02:08:07;19.20;93.20
78297;DHT22;67555;47.660;19.622;2023-06-24T02:10:36;19.10;93.20
78297;DHT22;67555;47.660;19.622;2023-06-24T02:13:04;19.10;93.20
78297;DHT22;67555;47.660;19.622;2023-06-24T02:15:30;19.00;93.20
78297;DHT22;67555;47.660;19.622;2023-06-24T02:17:57;18.90;93.30
78297;DHT22;67555;47.660;19.622;2023-06-24T02:20:23;18.90;93.40
78297;DHT22;67555;47.660;19.622;2023-06-24T02:22:53;18.80;93.50
78297;DHT22;67555;47.660;19.622;2023-06-24T02:25:19;18.80;93.60
78297;DHT22;67555;47.660;19.622;2023-06-24T02:27:46;18.80;93.60
78297;DHT22;67555;47.660;19.622;2023-06-24T02:30:12;18.80;93.60
78297;DHT22;67555;47.660;19.622;2023-06-24T02:32:39;18.80;93.60
78297;DHT22;67555;47.660;19.622;2023-06-24T02:35:05;18.80;93.60
78297;DHT22;67555;47.660;19.622;2023-06-24T02:37:31;18.70;93.70
78297;DHT22;67555;47.660;19.622;2023-06-24T02:39:57;18.70;93.80
78297;DHT22;67555;47.660;19.622;2023-06-24T02:42:23;18.70;93.90
78297;DHT22;67555;47.660;19.622;2023-06-24T02:44:48;18.70;94.00
78297;DHT22;67555;47.660;19.622;2023-06-24T02:47:15;18.70;94.10
78297;DHT22;67555;47.660;19.622;2023-06-24T02:49:42;18.70;94.00
78297;DHT22;67555;47.660;19.622;2023-06-24T02:52:12;18.60;93.90
78297;DHT22;67555;47.660;19.622;2023-06-24T02:54:38;18.50;94.00
78297;DHT22;67555;47.660;19.622;2023-06-24T02:57:06;18.40;94.00
78297;DHT22;67555;47.660;19.622;2023-06-24T02:59:32;18.30;94.00
78297;DHT22;67555;47.660;19.622;2023-06-24T03:01:58;18.30;94.10
78297;DHT22;67555;47.660;19.622;2023-06-24T03:04:25;18.20;94.10
78297;DHT22;67555;47.660;19.622;2023-06-24T03:06:51;18.10;94.20
78297;DHT22;67555;47.660;19.622;2023-06-24T03:09:18;18.00;94.20
78297;DHT22;67555;47.660;19.622;2023-06-24T03:11:44;17.80;94.30
78297;DHT22;67555;47.660;19.622;2023-06-24T03:14:11;17.70;94.40
78297;DHT22;67555;47.660;19.622;2023-06-24T03:16:37;17.60;94.60
78297;DHT22;67555;47.660;19.622;2023-06-24T03:19:06;17.50;94.70
78297;DHT22;67555;47.660;19.622;2023-06-24T03:21:32;17.50;94.80
78297;DHT22;67555;47.660;19.622;2023-06-24T03:23:58;17.40;94.90
78297;DHT22;67555;47.660;19.622;2023-06-24T03:26:32;17.40;95.10
78297;DHT22;67555;47.660;19.622;2023-06-24T03:28:58;17.40;95.20
78297;DHT22;67555;47.660;19.622;2023-06-24T03:31:24;17.50;95.20
78297;DHT22;67555;47.660;19.622;2023-06-24T03:33:50;17.50;95.20
78297;DHT22;67555;47.660;19.622;2023-06-24T03:36:15;17.50;95.20
78297;DHT22;67555;47.660;19.622;2023-06-24T03:38:41;17.50;95.20
78297;DHT22;67555;47.660;19.622;2023-06-24T03:41:07;17.50;95.20
78297;DHT22;67555;47.660;19.622;2023-06-24T03:43:32;17.50;95.20
78297;DHT22;67555;47.660;19.622;2023-06-24T03:45:58;17.50;95.20
78297;DHT22;67555;47.660;19.622;2023-06-24T03:48:25;17.50;95.20
78297;DHT22;67555;47.660;19.622;2023-06-24T03:50:51;17.60;95.30
78297;DHT22;67555;47.660;19.622;2023-06-24T03:53:17;17.70;95.30
78297;DHT22;67555;47.660;19.622;2023-06-24T03:55:42;17.80;95.20
78297;DHT22;67555;47.660;19.622;2023-06-24T03:58:08;17.80;95.10
78297;DHT22;67555;47.660;19.622;2023-06-24T04:00:34;17.90;95.00
78297;DHT22;67555;47.660;19.622;2023-06-24T04:03:01;17.90;94.70
78297;DHT22;67555;47.660;19.622;2023-06-24T04:05:27;17.90;94.60
78297;DHT22;67555;47.660;19.622;2023-06-24T04:07:54;17.90;94.70
78297;DHT22;67555;47.660;19.622;2023-06-24T04:10:19;17.90;94.50
78297;DHT22;67555;47.660;19.622;2023-06-24T04:12:46;17.90;94.50
78297;DHT22;67555;47.660;19.622;2023-06-24T04:15:11;18.00;94.40
78297;DHT22;67555;47.660;19.622;2023-06-24T04:17:37;18.00;94.10
78297;DHT22;67555;47.660;19.622;2023-06-24T04:20:03;18.00;94.20
78297;DHT22;67555;47.660;19.622;2023-06-24T04:22:32;18.00;94.40
78297;DHT22;67555;47.660;19.622;2023-06-24T04:24:58;18.20;94.30
78297;DHT22;67555;47.660;19.622;2023-06-24T04:27:23;18.30;94.20
78297;DHT22;67555;47.660;19.622;2023-06-24T04:29:49;18.40;94.20
78297;DHT22;67555;47.660;19.622;2023-06-24T04:32:15;18.60;94.20
78297;DHT22;67555;47.660;19.622;2023-06-24T04:34:40;18.80;94.00
78297;DHT22;67555;47.660;19.622;2023-06-24T04:37:06;18.90;93.70
78297;DHT22;67555;47.660;19.622;2023-06-24T04:39:32;19.00;93.50
78297;DHT22;67555;47.660;19.622;2023-06-24T04:41:58;19.00;93.30
78297;DHT22;67555;47.660;19.622;2023-06-24T04:44:24;19.00;93.20
78297;DHT22;67555;47.660;19.622;2023-06-24T04:46:49;18.90;92.90
78297;DHT22;67555;47.660;19.622;2023-06-24T04:49:17;18.80;92.50
78297;DHT22;67555;47.660;19.622;2023-06-24T04:51:43;18.60;92.20
78297;DHT22;67555;47.660;19.622;2023-06-24T04:54:09;18.50;92.30
78297;DHT22;67555;47.660;19.622;2023-06-24T04:56:34;18.40;92.50
78297;DHT22;67555;47.660;19.622;2023-06-24T04:59:01;18.30;92.50
78297;DHT22;67555;47.660;19.622;2023-06-24T05:01:26;18.30;92.70
78297;DHT22;67555;47.660;19.622;2023-06-24T05:03:52;18.30;92.90
78297;DHT22;67555;47.660;19.622;2023-06-24T05:06:18;18.30;93.00
78297;DHT22;67555;47.660;19.622;2023-06-24T05:08:43;18.30;93.10
78297;DHT22;67555;47.660;19.622;2023-06-24T05:11:09;18.30;93.00
78297;DHT22;67555;47.660;19.622;2023-06-24T05:13:35;18.30;93.20
78297;DHT22;67555;47.660;19.622;2023-06-24T05:16:00;18.40;93.30
78297;DHT22;67555;47.660;19.622;2023-06-24T05:18:26;18.50;93.30
78297;DHT22;67555;47.660;19.622;2023-06-24T05:20:52;18.60;93.20
78297;DHT22;67555;47.660;19.622;2023-06-24T05:23:19;18.70;92.70
78297;DHT22;67555;47.660;19.622;2023-06-24T05:25:45;18.70;92.90
78297;DHT22;67555;47.660;19.622;2023-06-24T05:28:10;18.80;92.30
78297;DHT22;67555;47.660;19.622;2023-06-24T05:30:36;18.80;91.90
78297;DHT22;67555;47.660;19.622;2023-06-24T05:33:02;18.80;91.80
78297;DHT22;67555;47.660;19.622;2023-06-24T05:35:27;18.90;91.60
78297;DHT22;67555;47.660;19.622;2023-06-24T05:37:53;19.00;91.70
78297;DHT22;67555;47.660;19.622;2023-06-24T05:40:20;19.10;91.70
78297;DHT22;67555;47.660;19.622;2023-06-24T05:42:46;19.20;91.80
78297;DHT22;67555;47.660;19.622;2023-06-24T05:45:12;19.40;91.10
78297;DHT22;67555;47.660;19.622;2023-06-24T05:47:37;19.40;90.30
78297;DHT22;67555;47.660;19.622;2023-06-24T05:50:04;19.40;90.00
78297;DHT22;67555;47.660;19.622;2023-06-24T05:52:30;19.50;90.30
78297;DHT22;67555;47.660;19.622;2023-06-24T05:54:56;19.50;89.70
78297;DHT22;67555;47.660;19.622;2023-06-24T05:57:21;19.70;90.10
78297;DHT22;67555;47.660;19.622;2023-06-24T05:59:47;19.70;89.90
78297;DHT22;67555;47.660;19.622;2023-06-24T06:02:18;19.90;89.60
78297;DHT22;67555;47.660;19.622;2023-06-24T06:04:44;20.00;89.00
78297;DHT22;67555;47.660;19.622;2023-06-24T06:07:09;20.00;89.00
78297;DHT22;67555;47.660;19.622;2023-06-24T06:09:35;20.00;88.30
78297;DHT22;67555;47.660;19.622;2023-06-24T06:12:10;20.00;88.10
78297;DHT22;67555;47.660;19.622;2023-06-24T06:14:36;20.10;88.40
78297;DHT22;67555;47.660;19.622;2023-06-24T06:17:01;20.20;87.50
78297;DHT22;67555;47.660;19.622;2023-06-24T06:19:27;20.20;87.00
78297;DHT22;67555;47.660;19.622;2023-06-24T06:21:53;20.30;87.30
78297;DHT22;67555;47.660;19.622;2023-06-24T06:24:18;20.30;87.50
78297;DHT22;67555;47.660;19.622;2023-06-24T06:26:44;20.30;88.00
78297;DHT22;67555;47.660;19.622;2023-06-24T06:29:11;20.50;88.00
78297;DHT22;67555;47.660;19.622;2023-06-24T06:31:37;20.60;87.90
78297;DHT22;67555;47.660;19.622;2023-06-24T06:34:03;20.70;87.60
78297;DHT22;67555;47.660;19.622;2023-06-24T06:36:29;20.80;87.90
78297;DHT22;67555;47.660;19.622;2023-06-24T06:38:55;20.90;87.50
78297;DHT22;67555;47.660;19.622;2023-06-24T06:41:22;21.00;87.60
78297;DHT22;67555;47.660;19.622;2023-06-24T06:43:53;21.10;87.30
78297;DHT22;67555;47.660;19.622;2023-06-24T06:46:19;21.30;87.40
78297;DHT22;67555;47.660;19.622;2023-06-24T06:48:45;21.40;87.70
78297;DHT22;67555;47.660;19.622;2023-06-24T06:51:12;21.50;86.40
78297;DHT22;67555;47.660;19.622;2023-06-24T06:53:38;21.40;85.90
78297;DHT22;67555;47.660;19.622;2023-06-24T06:56:04;21.50;86.40
78297;DHT22;67555;47.660;19.622;2023-06-24T06:58:30;21.50;85.90
78297;DHT22;67555;47.660;19.622;2023-06-24T07:00:55;21.50;86.10
78297;DHT22;67555;47.660;19.622;2023-06-24T07:03:21;21.70;86.60
78297;DHT22;67555;47.660;19.622;2023-06-24T07:05:47;21.80;86.50
78297;DHT22;67555;47.660;19.622;2023-06-24T07:08:13;21.90;85.00
78297;DHT22;67555;47.660;19.622;2023-06-24T07:10:38;21.90;85.40
78297;DHT22;67555;47.660;19.622;2023-06-24T07:13:04;22.00;85.40
78297;DHT22;67555;47.660;19.622;2023-06-24T07:15:30;22.00;85.50
78297;DHT22;67555;47.660;19.622;2023-06-24T07:17:55;22.10;85.70
78297;DHT22;67555;47.660;19.622;2023-06-24T07:20:22;22.30;86.00
78297;DHT22;67555;47.660;19.622;2023-06-24T07:22:47;22.40;85.60
78297;DHT22;67555;47.660;19.622;2023-06-24T07:25:13;22.50;84.60
78297;DHT22;67555;47.660;19.622;2023-06-24T07:27:39;22.50;83.90
78297;DHT22;67555;47.660;19.622;2023-06-24T07:30:06;22.50;83.90
78297;DHT22;67555;47.660;19.622;2023-06-24T07:32:32;22.50;84.20
78297;DHT22;67555;47.660;19.622;2023-06-24T07:34:57;22.50;83.20
78297;DHT22;67555;47.660;19.622;2023-06-24T07:37:23;22.50;83.10
78297;DHT22;67555;47.660;19.622;2023-06-24T07:39:49;22.60;84.10
78297;DHT22;67555;47.660;19.622;2023-06-24T07:42:15;22.60;83.10
78297;DHT22;67555;47.660;19.622;2023-06-24T07:44:50;22.60;82.30
78297;DHT22;67555;47.660;19.622;2023-06-24T07:47:17;22.60;81.60
78297;DHT22;67555;47.660;19.622;2023-06-24T07:49:44;22.60;82.20
78297;DHT22;67555;47.660;19.622;2023-06-24T07:52:10;22.80;83.50
78297;DHT22;67555;47.660;19.622;2023-06-24T07:54:35;23.00;81.30
78297;DHT22;67555;47.660;19.622;2023-06-24T07:57:01;23.00;80.90
78297;DHT22;67555;47.660;19.622;2023-06-24T07:59:28;22.90;80.40
78297;DHT22;67555;47.660;19.622;2023-06-24T08:01:54;22.90;81.60
78297;DHT22;67555;47.660;19.622;2023-06-24T08:04:20;23.00;80.20
78297;DHT22;67555;47.660;19.622;2023-06-24T08:06:45;22.90;79.70
78297;DHT22;67555;47.660;19.622;2023-06-24T08:09:11;22.90;79.60
78297;DHT22;67555;47.660;19.622;2023-06-24T08:11:37;22.90;79.10
78297;DHT22;67555;47.660;19.622;2023-06-24T08:14:02;22.80;79.00
78297;DHT22;67555;47.660;19.622;2023-06-24T08:16:29;22.80;79.20
78297;DHT22;67555;47.660;19.622;2023-06-24T08:18:55;22.80;80.20
78297;DHT22;67555;47.660;19.622;2023-06-24T08:21:21;23.00;79.70
78297;DHT22;67555;47.660;19.622;2023-06-24T08:23:47;23.10;78.80
78297;DHT22;67555;47.660;19.622;2023-06-24T08:26:15;23.20;78.80
78297;DHT22;67555;47.660;19.622;2023-06-24T08:28:41;23.40;79.40
78297;DHT22;67555;47.660;19.622;2023-06-24T08:31:06;23.60;79.50
78297;DHT22;67555;47.660;19.622;2023-06-24T08:33:32;23.80;77.10
78297;DHT22;67555;47.660;19.622;2023-06-24T08:35:58;23.80;76.20
78297;DHT22;67555;47.660;19.622;2023-06-24T08:38:24;23.80;76.30
78297;DHT22;67555;47.660;19.622;2023-06-24T08:40:50;23.80;75.60
78297;DHT22;67555;47.660;19.622;2023-06-24T08:43:16;23.70;76.40
78297;DHT22;67555;47.660;19.622;2023-06-24T08:45:43;23.80;77.20
78297;DHT22;67555;47.660;19.622;2023-06-24T08:48:08;23.90;76.60
78297;DHT22;67555;47.660;19.622;2023-06-24T08:50:43;24.00;76.40
78297;DHT22;67555;47.660;19.622;2023-06-24T08:53:09;24.00;76.60
78297;DHT22;67555;47.660;19.622;2023-06-24T08:55:43;24.20;73.60
78297;DHT22;67555;47.660;19.622;2023-06-24T08:58:09;24.20;76.00
78297;DHT22;67555;47.660;19.622;2023-06-24T09:00:35;24.40;76.40
78297;DHT22;67555;47.660;19.622;2023-06-24T09:03:01;24.40;75.00
78297;DHT22;67555;47.660;19.622;2023-06-24T09:05:27;24.40;73.50
78297;DHT22;67555;47.660;19.622;2023-06-24T09:07:53;24.40;73.50
78297;DHT22;67555;47.660;19.622;2023-06-24T09:10:37;24.40;74.00
78297;DHT22;67555;47.660;19.622;2023-06-24T09:13:05;24.50;72.90
78297;DHT22;67555;47.660;19.622;2023-06-24T09:15:32;24.80;74.10
78297;DHT22;67555;47.660;19.622;2023-06-24T09:17:58;25.00;73.00
78297;DHT22;67555;47.660;19.622;2023-06-24T09:20:26;25.20;72.50
78297;DHT22;67555;47.660;19.622;2023-06-24T09:23:01;25.40;71.00
78297;DHT22;67555;47.660;19.622;2023-06-24T09:25:27;25.40;69.40
78297;DHT22;67555;47.660;19.622;2023-06-24T09:27:53;25.30;69.30
78297;DHT22;67555;47.660;19.622;2023-06-24T09:30:24;25.30;68.90
78297;DHT22;67555;47.660;19.622;2023-06-24T09:32:51;25.20;68.40
78297;DHT22;67555;47.660;19.622;2023-06-24T09:35:23;25.20;69.90
78297;DHT22;67555;47.660;19.622;2023-06-24T09:37:58;25.40;70.50
78297;DHT22;67555;47.660;19.622;2023-06-24T09:40:27;25.60;69.70
78297;DHT22;67555;47.660;19.622;2023-06-24T09:42:57;25.60;68.40
78297;DHT22;67555;47.660;19.622;2023-06-24T09:45:28;25.70;67.30
78297;DHT22;67555;47.660;19.622;2023-06-24T09:47:55;25.90;68.40
78297;DHT22;67555;47.660;19.622;2023-06-24T09:50:21;26.10;66.00
78297;DHT22;67555;47.660;19.622;2023-06-24T09:52:49;26.00;65.20
78297;DHT22;67555;47.660;19.622;2023-06-24T09:55:15;26.10;65.40
78297;DHT22;67555;47.660;19.622;2023-06-24T09:57:51;26.10;64.90
78297;DHT22;67555;47.660;19.622;2023-06-24T10:00:19;26.10;65.10
78297;DHT22;67555;47.660;19.622;2023-06-24T10:02:46;26.10;64.20
78297;DHT22;67555;47.660;19.622;2023-06-24T10:05:13;26.10;64.90
78297;DHT22;67555;47.660;19.622;2023-06-24T10:07:40;26.20;64.60
78297;DHT22;67555;47.660;19.622;2023-06-24T10:10:07;26.30;63.50
78297;DHT22;67555;47.660;19.622;2023-06-24T10:12:37;26.50;64.00
78297;DHT22;67555;47.660;19.622;2023-06-24T10:15:04;26.90;63.20
78297;DHT22;67555;47.660;19.622;2023-06-24T10:17:30;27.20;61.30
78297;DHT22;67555;47.660;19.622;2023-06-24T10:19:56;27.40;59.70
78297;DHT22;67555;47.660;19.622;2023-06-24T10:22:22;27.50;59.00
78297;DHT22;67555;47.660;19.622;2023-06-24T10:24:52;27.70;58.70
78297;DHT22;67555;47.660;19.622;2023-06-24T10:27:20;27.50;58.10
78297;DHT22;67555;47.660;19.622;2023-06-24T10:29:51;27.30;58.70
78297;DHT22;67555;47.660;19.622;2023-06-24T10:32:22;27.10;59.00
78297;DHT22;67555;47.660;19.622;2023-06-24T10:34:54;27.00;59.80
78297;DHT22;67555;47.660;19.622;2023-06-24T10:37:25;27.10;60.20
78297;DHT22;67555;47.660;19.622;2023-06-24T10:39:52;27.40;60.10
78297;DHT22;67555;47.660;19.622;2023-06-24T10:44:55;27.20;58.80
78297;DHT22;67555;47.660;19.622;2023-06-24T10:47:22;27.20;58.50
78297;DHT22;67555;47.660;19.622;2023-06-24T10:49:49;27.00;58.80
78297;DHT22;67555;47.660;19.622;2023-06-24T10:52:21;26.90;58.70
78297;DHT22;67555;47.660;19.622;2023-06-24T10:54:47;26.70;58.80
78297;DHT22;67555;47.660;19.622;2023-06-24T10:57:13;26.60;58.50
78297;DHT22;67555;47.660;19.622;2023-06-24T10:59:43;26.50;58.30
78297;DHT22;67555;47.660;19.622;2023-06-24T11:02:19;26.60;59.60
78297;DHT22;67555;47.660;19.622;2023-06-24T11:07:20;27.00;58.20
78297;DHT22;67555;47.660;19.622;2023-06-24T11:09:57;27.10;57.70
78297;DHT22;67555;47.660;19.622;2023-06-24T11:12:29;27.10;57.20
78297;DHT22;67555;47.660;19.622;2023-06-24T11:14:59;27.20;57.70
78297;DHT22;67555;47.660;19.622;2023-06-24T11:17:25;27.30;57.80
78297;DHT22;67555;47.660;19.622;2023-06-24T11:19:55;27.50;58.20
78297;DHT22;67555;47.660;19.622;2023-06-24T11:22:22;27.50;57.00
78297;DHT22;67555;47.660;19.622;2023-06-24T11:24:48;27.50;57.00
78297;DHT22;67555;47.660;19.622;2023-06-24T11:27:14;27.40;57.10
78297;DHT22;67555;47.660;19.622;2023-06-24T11:29:41;27.40;55.40
78297;DHT22;67555;47.660;19.622;2023-06-24T11:32:09;27.40;56.30
78297;DHT22;67555;47.660;19.622;2023-06-24T11:34:36;27.50;56.60
78297;DHT22;67555;47.660;19.622;2023-06-24T11:37:13;27.70;56.60
78297;DHT22;67555;47.660;19.622;2023-06-24T11:39:39;28.00;56.80
78297;DHT22;67555;47.660;19.622;2023-06-24T11:42:08;28.10;55.70
78297;DHT22;67555;47.660;19.622;2023-06-24T11:44:35;28.10;55.10
78297;DHT22;67555;47.660;19.622;2023-06-24T11:47:08;28.30;55.40
78297;DHT22;67555;47.660;19.622;2023-06-24T11:49:52;28.30;53.70
78297;DHT22;67555;47.660;19.622;2023-06-24T11:52:19;28.10;54.00
78297;DHT22;67555;47.660;19.622;2023-06-24T11:54:45;28.00;54.50
78297;DHT22;67555;47.660;19.622;2023-06-24T11:57:12;27.90;54.70
78297;DHT22;67555;47.660;19.622;2023-06-24T11:59:38;27.80;54.50
78297;DHT22;67555;47.660;19.622;2023-06-24T12:02:04;27.70;55.00
78297;DHT22;67555;47.660;19.622;2023-06-24T12:04:30;27.50;55.10
78297;DHT22;67555;47.660;19.622;2023-06-24T12:06:57;27.50;55.30
78297;DHT22;67555;47.660;19.622;2023-06-24T12:09:23;27.50;54.80
78297;DHT22;67555;47.660;19.622;2023-06-24T12:11:50;27.50;54.40
78297;DHT22;67555;47.660;19.622;2023-06-24T12:14:16;27.70;54.20
78297;DHT22;67555;47.660;19.622;2023-06-24T12:16:41;27.70;53.50
78297;DHT22;67555;47.660;19.622;2023-06-24T12:19:07;27.60;54.20
78297;DHT22;67555;47.660;19.622;2023-06-24T12:21:34;27.60;54.60
78297;DHT22;67555;47.660;19.622;2023-06-24T12:24:00;27.60;54.70
78297;DHT22;67555;47.660;19.622;2023-06-24T12:26:25;27.60;54.80
78297;DHT22;67555;47.660;19.622;2023-06-24T12:28:54;27.70;55.10
78297;DHT22;67555;47.660;19.622;2023-06-24T12:31:20;28.00;55.20
78297;DHT22;67555;47.660;19.622;2023-06-24T12:33:46;28.20;53.10
78297;DHT22;67555;47.660;19.622;2023-06-24T12:36:12;28.30;52.70
78297;DHT22;67555;47.660;19.622;2023-06-24T12:38:37;28.30;52.50
78297;DHT22;67555;47.660;19.622;2023-06-24T12:41:03;28.30;52.20
78297;DHT22;67555;47.660;19.622;2023-06-24T12:43:29;28.10;53.00
78297;DHT22;67555;47.660;19.622;2023-06-24T12:45:55;28.20;52.80
78297;DHT22;67555;47.660;19.622;2023-06-24T12:48:21;28.30;52.30
78297;DHT22;67555;47.660;19.622;2023-06-24T12:50:47;28.50;53.00
78297;DHT22;67555;47.660;19.622;2023-06-24T12:53:14;28.90;52.40
78297;DHT22;67555;47.660;19.622;2023-06-24T12:55:41;29.10;52.00
78297;DHT22;67555;47.660;19.622;2023-06-24T12:58:07;29.10;51.10
78297;DHT22;67555;47.660;19.622;2023-06-24T13:00:33;29.00;51.60
78297;DHT22;67555;47.660;19.622;2023-06-24T13:02:58;29.10;51.10
78297;DHT22;67555;47.660;19.622;2023-06-24T13:05:25;29.00;50.70
78297;DHT22;67555;47.660;19.622;2023-06-24T13:07:51;29.00;50.60
78297;DHT22;67555;47.660;19.622;2023-06-24T13:10:17;29.00;50.30
78297;DHT22;67555;47.660;19.622;2023-06-24T13:12:42;28.90;50.70
78297;DHT22;67555;47.660;19.622;2023-06-24T13:15:08;28.90;50.70
78297;DHT22;67555;47.660;19.622;2023-06-24T13:17:35;29.30;50.70
78297;DHT22;67555;47.660;19.622;2023-06-24T13:20:02;29.70;50.20
78297;DHT22;67555;47.660;19.622;2023-06-24T13:22:30;29.90;49.60
78297;DHT22;67555;47.660;19.622;2023-06-24T13:24:56;29.90;49.00
78297;DHT22;67555;47.660;19.622;2023-06-24T13:27:22;29.60;49.00
78297;DHT22;67555;47.660;19.622;2023-06-24T13:29:47;29.30;48.90
78297;DHT22;67555;47.660;19.622;2023-06-24T13:32:13;29.20;49.40
78297;DHT22;67555;47.660;19.622;2023-06-24T13:34:39;29.10;50.00
78297;DHT22;67555;47.660;19.622;2023-06-24T13:37:05;29.10;50.10
78297;DHT22;67555;47.660;19.622;2023-06-24T13:39:31;29.30;49.60
78297;DHT22;67555;47.660;19.622;2023-06-24T13:41:58;29.50;49.40
78297;DHT22;67555;47.660;19.622;2023-06-24T13:44:24;29.70;48.80
78297;DHT22;67555;47.660;19.622;2023-06-24T13:46:49;30.00;48.80
78297;DHT22;67555;47.660;19.622;2023-06-24T13:49:16;30.00;48.40
78297;DHT22;67555;47.660;19.622;2023-06-24T13:51:42;30.00;48.30
78297;DHT22;67555;47.660;19.622;2023-06-24T13:54:08;30.10;48.40
78297;DHT22;67555;47.660;19.622;2023-06-24T13:56:34;30.20;48.40
78297;DHT22;67555;47.660;19.622;2023-06-24T13:59:00;30.20;48.90
78297;DHT22;67555;47.660;19.622;2023-06-24T14:01:25;30.00;49.10
78297;DHT22;67555;47.660;19.622;2023-06-24T14:03:55;29.80;49.30
78297;DHT22;67555;47.660;19.622;2023-06-24T14:06:22;29.70;49.50
78297;DHT22;67555;47.660;19.622;2023-06-24T14:08:49;29.60;49.70
78297;DHT22;67555;47.660;19.622;2023-06-24T14:11:15;29.50;50.60
78297;DHT22;67555;47.660;19.622;2023-06-24T14:13:42;29.70;51.00
78297;DHT22;67555;47.660;19.622;2023-06-24T14:16:07;29.70;50.90
78297;DHT22;67555;47.660;19.622;2023-06-24T14:18:33;29.70;51.20
78297;DHT22;67555;47.660;19.622;2023-06-24T14:21:01;29.70;51.40
78297;DHT22;67555;47.660;19.622;2023-06-24T14:23:28;29.50;50.30
78297;DHT22;67555;47.660;19.622;2023-06-24T14:25:54;29.40;50.00
78297;DHT22;67555;47.660;19.622;2023-06-24T14:28:20;29.20;50.70
78297;DHT22;67555;47.660;19.622;2023-06-24T14:30:46;29.10;51.20
78297;DHT22;67555;47.660;19.622;2023-06-24T14:33:15;29.10;51.40
78297;DHT22;67555;47.660;19.622;2023-06-24T14:35:41;29.00;51.20
78297;DHT22;67555;47.660;19.622;2023-06-24T14:38:07;28.90;51.60
78297;DHT22;67555;47.660;19.622;2023-06-24T14:40:33;28.90;51.80
78297;DHT22;67555;47.660;19.622;2023-06-24T14:42:59;28.90;52.10
78297;DHT22;67555;47.660;19.622;2023-06-24T14:45:25;29.00;52.00
78297;DHT22;67555;47.660;19.622;2023-06-24T14:47:51;29.10;52.20
78297;DHT22;67555;47.660;19.622;2023-06-24T14:50:17;29.10;52.50
78297;DHT22;67555;47.660;19.622;2023-06-24T14:52:43;29.10;52.50
78297;DHT22;67555;47.660;19.622;2023-06-24T14:55:08;29.10;52.30
78297;DHT22;67555;47.660;19.622;2023-06-24T14:57:35;29.10;52.50
78297;DHT22;67555;47.660;19.622;2023-06-24T15:00:02;29.00;52.50
78297;DHT22;67555;47.660;19.622;2023-06-24T15:02:28;29.00;52.70
78297;DHT22;67555;47.660;19.622;2023-06-24T15:04:54;29.00;52.30
78297;DHT22;67555;47.660;19.622;2023-06-24T15:07:19;28.90;52.40
78297;DHT22;67555;47.660;19.622;2023-06-24T15:09:45;28.70;52.50
78297;DHT22;67555;47.660;19.622;2023-06-24T15:12:11;28.50;52.70
78297;DHT22;67555;47.660;19.622;2023-06-24T15:14:37;28.50;52.90
78297;DHT22;67555;47.660;19.622;2023-06-24T15:17:03;28.30;53.20
78297;DHT22;67555;47.660;19.622;2023-06-24T15:19:29;28.30;53.40
78297;DHT22;67555;47.660;19.622;2023-06-24T15:21:55;28.30;53.30
78297;DHT22;67555;47.660;19.622;2023-06-24T15:24:21;28.50;53.40
78297;DHT22;67555;47.660;19.622;2023-06-24T15:26:46;28.50;53.40
78297;DHT22;67555;47.660;19.622;2023-06-24T15:29:12;28.60;52.80
78297;DHT22;67555;47.660;19.622;2023-06-24T15:31:38;28.60;52.30